Time;durP1;ratioP1;P1;durP2;ratioP2;P2;SDS_P1;SDS_P2;PMS_P1;PMS_P2;Temp;Humidity;BMP_temperature;BMP_pressure;BME280_temperature;BME280_humidity;BME280_pressure;Samples;Min_cycle;Max_cycle;Signal;HPM_P1;HPM_P2
2022/12/19 00:01:59;;;;;;;;;;;0.90;88.90;;;;;;5073220;28;19968;-88
2022/12/19 00:04:24;;;;;;;;;;;0.90;88.70;;;;;;5072903;28;19999;-87
2022/12/19 00:06:50;;;;;;;;;;;1.00;88.40;;;;;;5073265;28;19938;-88
2022/12/19 00:09:15;;;;;;;;;;;1.00;88.50;;;;;;5055334;28;20401;-88
2022/12/19 00:11:41;;;;;;;;;;;1.10;88.60;;;;;;5073157;28;20405;-88
2022/12/19 00:14:09;;;;;;;;;;;1.10;88.80;;;;;;5072895;28;19953;-88
2022/12/19 00:16:34;;;;;;;;;;;1.20;89.10;;;;;;5073145;28;20425;-88
2022/12/19 00:19:00;;;;;;;;;;;1.20;89.20;;;;;;5073093;28;19937;-88
2022/12/19 00:21:27;;;;;;;;;;;1.40;89.00;;;;;;5072762;28;20075;-88
2022/12/19 00:23:53;;;;;;;;;;;1.40;88.80;;;;;;5072695;28;19969;-88
2022/12/19 00:26:20;;;;;;;;;;;1.40;88.90;;;;;;5072868;28;20058;-88
2022/12/19 00:28:46;;;;;;;;;;;1.40;88.70;;;;;;5073038;28;19942;-88
2022/12/19 00:31:12;;;;;;;;;;;1.40;88.60;;;;;;5072969;28;19936;-88
2022/12/19 00:33:38;;;;;;;;;;;1.50;89.00;;;;;;5072469;28;20047;-88
2022/12/19 00:36:05;;;;;;;;;;;1.60;88.90;;;;;;5072944;28;19991;-88
2022/12/19 00:38:31;;;;;;;;;;;1.70;88.80;;;;;;5072854;28;19944;-88
2022/12/19 00:41:06;;;;;;;;;;;1.70;88.60;;;;;;5072921;28;19943;-88
2022/12/19 00:43:31;;;;;;;;;;;1.70;88.30;;;;;;5072531;28;19967;-89
2022/12/19 00:45:57;;;;;;;;;;;1.70;88.30;;;;;;5072856;28;19938;-87
2022/12/19 00:48:22;;;;;;;;;;;1.70;88.80;;;;;;5072843;28;19936;-87
2022/12/19 00:50:48;;;;;;;;;;;1.80;88.40;;;;;;5072821;28;20027;-87
2022/12/19 00:53:13;;;;;;;;;;;1.70;87.90;;;;;;5072415;28;20413;-86
2022/12/19 00:55:39;;;;;;;;;;;1.70;87.90;;;;;;5072777;28;19950;-87
2022/12/19 00:58:04;;;;;;;;;;;1.60;88.10;;;;;;5072749;28;19939;-87
2022/12/19 01:00:30;;;;;;;;;;;1.60;88.60;;;;;;5072700;28;19944;-86
2022/12/19 01:02:55;;;;;;;;;;;1.60;88.80;;;;;;5072345;28;19960;-87
2022/12/19 01:05:21;;;;;;;;;;;1.60;88.80;;;;;;5072654;28;20065;-87
2022/12/19 01:07:46;;;;;;;;;;;1.60;88.90;;;;;;5072609;28;19937;-87
2022/12/19 01:10:12;;;;;;;;;;;1.70;89.00;;;;;;5072811;28;19946;-87
2022/12/19 01:12:46;;;;;;;;;;;1.70;89.00;;;;;;5054353;28;20407;-87
2022/12/19 01:15:16;;;;;;;;;;;1.70;89.00;;;;;;5072553;28;19979;-87
2022/12/19 01:17:42;;;;;;;;;;;1.70;89.00;;;;;;5072542;28;19937;-88
2022/12/19 01:20:08;;;;;;;;;;;1.70;89.10;;;;;;5072476;28;20020;-88
2022/12/19 01:22:33;;;;;;;;;;;1.70;89.10;;;;;;5072032;28;20017;-88
2022/12/19 01:25:01;;;;;;;;;;;1.80;89.20;;;;;;5071707;28;20379;-87
2022/12/19 01:27:26;;;;;;;;;;;1.80;88.60;;;;;;5072406;28;19944;-87
2022/12/19 01:29:52;;;;;;;;;;;1.90;88.20;;;;;;5072388;28;19942;-87
2022/12/19 01:32:17;;;;;;;;;;;2.00;87.50;;;;;;5072972;28;19942;-87
2022/12/19 01:34:43;;;;;;;;;;;2.00;87.20;;;;;;5075967;28;19950;-87
2022/12/19 01:37:08;;;;;;;;;;;2.00;87.00;;;;;;5075930;28;20034;-88
2022/12/19 01:39:34;;;;;;;;;;;1.90;87.10;;;;;;5075880;28;20044;-88
2022/12/19 01:41:59;;;;;;;;;;;1.90;87.10;;;;;;5075488;28;19947;-88
2022/12/19 01:44:25;;;;;;;;;;;1.90;87.40;;;;;;5075817;28;19950;-88
2022/12/19 01:46:52;;;;;;;;;;;2.00;87.60;;;;;;5075735;28;19941;-87
2022/12/19 01:49:18;;;;;;;;;;;2.00;87.80;;;;;;5057882;28;20341;-88
2022/12/19 01:51:44;;;;;;;;;;;2.00;87.70;;;;;;5075314;28;19943;-88
2022/12/19 01:54:12;;;;;;;;;;;2.00;87.20;;;;;;5075200;28;19961;-88
2022/12/19 01:56:41;;;;;;;;;;;2.00;87.00;;;;;;5075582;28;20069;-87
2022/12/19 01:59:09;;;;;;;;;;;2.00;87.10;;;;;;5057532;28;20036;-88
2022/12/19 02:01:36;;;;;;;;;;;2.00;87.10;;;;;;5075546;28;19942;-88
2022/12/19 02:04:02;;;;;;;;;;;1.90;87.10;;;;;;5074868;28;19956;-88
2022/12/19 02:06:27;;;;;;;;;;;1.90;87.10;;;;;;5075202;28;19941;-88
2022/12/19 02:08:54;;;;;;;;;;;1.80;87.10;;;;;;5075347;28;20009;-88
2022/12/19 02:11:20;;;;;;;;;;;1.80;87.20;;;;;;5075299;28;20316;-87
2022/12/19 02:13:45;;;;;;;;;;;1.90;87.40;;;;;;5075061;28;19947;-88
2022/12/19 02:16:29;;;;;;;;;;;2.00;86.80;;;;;;5075206;28;20409;-88
2022/12/19 02:19:13;;;;;;;;;;;2.10;86.50;;;;;;5075200;28;20032;-88
2022/12/19 02:21:57;;;;;;;;;;;2.10;86.30;;;;;;5082551;22;19982;-88
2022/12/19 02:24:23;;;;;;;;;;;2.10;86.50;;;;;;5055054;28;20402;-88
2022/12/19 02:26:57;;;;;;;;;;;2.00;86.50;;;;;;5055051;28;20119;-88
2022/12/19 02:29:41;;;;;;;;;;;1.90;86.60;;;;;;5054982;28;20557;-88
2022/12/19 02:32:14;;;;;;;;;;;1.90;86.80;;;;;;5057965;28;19944;-88
2022/12/19 02:34:46;;;;;;;;;;;2.00;86.60;;;;;;5074895;28;19941;-88
2022/12/19 02:37:27;;;;;;;;;;;2.10;86.40;;;;;;5074838;28;19940;-88
2022/12/19 02:40:01;;;;;;;;;;;2.10;86.50;;;;;;5074698;28;19941;-88
2022/12/19 02:42:31;;;;;;;;;;;2.10;86.30;;;;;;5074399;28;19959;-88
2022/12/19 02:44:59;;;;;;;;;;;2.10;87.00;;;;;;5074625;28;19939;-89
2022/12/19 02:47:25;;;;;;;;;;;2.20;87.10;;;;;;5056410;28;19947;-88
2022/12/19 02:49:50;;;;;;;;;;;2.50;86.70;;;;;;5074561;28;19936;-88
2022/12/19 02:52:19;;;;;;;;;;;2.70;85.90;;;;;;5074213;28;19955;-88
2022/12/19 02:54:54;;;;;;;;;;;3.00;84.80;;;;;;5074378;28;19988;-88
2022/12/19 02:57:26;;;;;;;;;;;3.10;84.00;;;;;;5074378;28;20005;-88
2022/12/19 02:59:55;;;;;;;;;;;2.90;83.40;;;;;;5074371;28;19944;-88
2022/12/19 03:02:20;;;;;;;;;;;2.70;83.60;;;;;;5073996;28;19963;-88
2022/12/19 03:05:02;;;;;;;;;;;2.50;84.20;;;;;;5074254;28;20020;-88
2022/12/19 03:07:41;;;;;;;;;;;2.20;85.60;;;;;;5074184;28;19989;-88
2022/12/19 03:10:06;;;;;;;;;;;2.00;86.30;;;;;;5074187;28;19936;-88
2022/12/19 03:12:38;;;;;;;;;;;2.00;86.20;;;;;;5073818;28;19941;-88
2022/12/19 03:15:04;;;;;;;;;;;2.00;86.30;;;;;;5073791;28;19945;-88
2022/12/19 03:17:33;;;;;;;;;;;1.90;86.20;;;;;;5074003;28;19954;-88
2022/12/19 03:19:59;;;;;;;;;;;1.90;86.20;;;;;;5056005;28;19943;-88
2022/12/19 03:22:25;;;;;;;;;;;1.90;86.40;;;;;;5073453;28;19968;-89
2022/12/19 03:24:51;;;;;;;;;;;2.10;86.50;;;;;;5073858;28;20385;-89
2022/12/19 03:27:27;;;;;;;;;;;2.20;86.30;;;;;;5073870;28;19981;-89
2022/12/19 03:29:55;;;;;;;;;;;2.40;86.30;;;;;;5073772;28;19947;-89
2022/12/19 03:32:23;;;;;;;;;;;2.50;86.10;;;;;;5055588;28;19945;-89
2022/12/19 03:34:49;;;;;;;;;;;2.40;86.30;;;;;;5073469;28;20462;-88
2022/12/19 03:37:16;;;;;;;;;;;2.30;86.60;;;;;;5073640;28;19973;-89
2022/12/19 03:39:44;;;;;;;;;;;2.20;86.80;;;;;;5073656;28;19980;-88
2022/12/19 03:44:56;;;;;;;;;;;2.40;85.70;;;;;;5073813;28;19991;-88
2022/12/19 03:47:28;;;;;;;;;;;2.20;85.60;;;;;;5073505;28;20004;-88
2022/12/19 03:49:53;;;;;;;;;;;2.20;85.70;;;;;;5073457;28;19941;-88
2022/12/19 03:52:19;;;;;;;;;;;2.00;85.90;;;;;;5073087;28;20027;-88
2022/12/19 03:54:51;;;;;;;;;;;2.00;86.40;;;;;;5072535;28;19984;-88
2022/12/19 03:57:24;;;;;;;;;;;2.00;86.40;;;;;;5073206;28;19948;-88
2022/12/19 03:59:54;;;;;;;;;;;1.90;86.40;;;;;;5073219;28;19978;-88
2022/12/19 04:02:21;;;;;;;;;;;1.90;86.60;;;;;;5085326;28;19964;-88
2022/12/19 04:04:49;;;;;;;;;;;1.70;86.70;;;;;;5073215;28;20032;-88
2022/12/19 04:07:16;;;;;;;;;;;1.50;87.20;;;;;;5072613;28;19954;-88
2022/12/19 04:09:42;;;;;;;;;;;1.50;87.50;;;;;;5071397;28;19948;-89
2022/12/19 04:12:12;;;;;;;;;;;1.70;88.40;;;;;;5072386;28;19992;-89
2022/12/19 04:14:38;;;;;;;;;;;1.80;88.30;;;;;;5073167;28;20028;-88
2022/12/19 04:17:19;;;;;;;;;;;1.80;88.10;;;;;;5073099;28;19942;-88
2022/12/19 04:19:56;;;;;;;;;;;1.90;87.60;;;;;;5073090;28;20063;-88
2022/12/19 04:22:28;;;;;;;;;;;1.90;86.70;;;;;;5072285;28;19984;-88
2022/12/19 04:24:54;;;;;;;;;;;1.80;86.40;;;;;;5073002;28;19945;-89
2022/12/19 04:27:20;;;;;;;;;;;1.70;86.40;;;;;;5072949;28;20354;-88
2022/12/19 04:29:47;;;;;;;;;;;1.60;86.50;;;;;;5073044;28;19937;-88
2022/12/19 04:32:13;;;;;;;;;;;1.60;87.40;;;;;;5072580;28;19942;-88
2022/12/19 04:34:39;;;;;;;;;;;1.60;88.20;;;;;;5072922;28;20003;-88
2022/12/19 04:37:05;;;;;;;;;;;1.60;88.10;;;;;;5072915;28;19959;-88
2022/12/19 04:39:30;;;;;;;;;;;1.70;88.10;;;;;;5072924;28;19944;-89
2022/12/19 04:41:56;;;;;;;;;;;2.00;88.10;;;;;;5072546;28;19980;-88
2022/12/19 04:44:21;;;;;;;;;;;2.10;87.60;;;;;;5054936;28;19993;-89
2022/12/19 04:46:47;;;;;;;;;;;2.10;87.30;;;;;;5072800;28;20390;-88
2022/12/19 04:49:12;;;;;;;;;;;2.00;87.30;;;;;;5072810;28;20294;-88
2022/12/19 04:51:38;;;;;;;;;;;1.90;87.50;;;;;;5073021;28;19995;-88
2022/12/19 04:54:03;;;;;;;;;;;1.90;87.60;;;;;;5071850;28;20018;-88
2022/12/19 04:56:29;;;;;;;;;;;1.80;87.70;;;;;;5072762;28;19943;-88
2022/12/19 04:58:58;;;;;;;;;;;1.70;87.40;;;;;;5072732;28;20005;-88
2022/12/19 05:01:24;;;;;;;;;;;1.60;87.60;;;;;;5072672;28;19943;-89
2022/12/19 05:03:50;;;;;;;;;;;1.40;88.70;;;;;;5072446;28;19942;-87
2022/12/19 05:06:16;;;;;;;;;;;1.30;89.90;;;;;;5071929;28;19952;-87
2022/12/19 05:08:43;;;;;;;;;;;1.40;89.80;;;;;;5075978;28;19938;-87
2022/12/19 05:11:09;;;;;;;;;;;1.40;89.70;;;;;;5076443;28;19937;-88
2022/12/19 05:13:35;;;;;;;;;;;1.40;89.90;;;;;;5076632;28;19997;-88
2022/12/19 05:16:01;;;;;;;;;;;1.40;90.50;;;;;;5058384;28;20411;-87
2022/12/19 05:18:27;;;;;;;;;;;1.40;90.50;;;;;;5076290;28;19964;-87
2022/12/19 05:20:53;;;;;;;;;;;1.40;89.90;;;;;;5076034;28;20382;-87
2022/12/19 05:23:19;;;;;;;;;;;1.40;89.80;;;;;;5076166;28;20319;-87
2022/12/19 05:25:44;;;;;;;;;;;1.40;89.80;;;;;;5076140;28;20394;-88
2022/12/19 05:28:10;;;;;;;;;;;1.40;89.60;;;;;;5076124;28;19944;-88
2022/12/19 05:30:35;;;;;;;;;;;1.50;89.60;;;;;;5076070;28;19941;-88
2022/12/19 05:33:01;;;;;;;;;;;1.40;89.60;;;;;;5076024;28;19990;-87
2022/12/19 05:35:26;;;;;;;;;;;1.40;89.90;;;;;;5075779;28;19954;-87
2022/12/19 05:37:52;;;;;;;;;;;1.50;89.90;;;;;;5075917;28;19938;-88
2022/12/19 05:40:17;;;;;;;;;;;1.60;89.90;;;;;;5075870;28;19970;-87
2022/12/19 05:42:43;;;;;;;;;;;1.70;89.50;;;;;;5075807;28;19956;-88
2022/12/19 05:45:08;;;;;;;;;;;1.70;89.30;;;;;;5075868;28;19945;-88
2022/12/19 05:47:34;;;;;;;;;;;1.70;89.40;;;;;;5075767;28;20306;-88
2022/12/19 05:49:59;;;;;;;;;;;1.80;89.40;;;;;;5075442;28;20435;-88
2022/12/19 05:52:25;;;;;;;;;;;1.90;89.20;;;;;;5075592;28;19984;-87
2022/12/19 05:54:50;;;;;;;;;;;1.90;89.00;;;;;;5074441;28;19939;-87
2022/12/19 05:57:16;;;;;;;;;;;2.00;88.70;;;;;;5073516;28;19942;-88
2022/12/19 05:59:41;;;;;;;;;;;2.00;88.40;;;;;;5075447;28;19942;-87
2022/12/19 06:02:07;;;;;;;;;;;1.80;88.00;;;;;;5075485;28;20361;-88
2022/12/19 06:04:33;;;;;;;;;;;1.50;89.00;;;;;;5075425;28;19951;-87
2022/12/19 06:06:58;;;;;;;;;;;1.60;89.40;;;;;;5073361;28;19951;-87
2022/12/19 06:09:24;;;;;;;;;;;1.50;89.60;;;;;;5075360;28;20288;-87
2022/12/19 06:11:49;;;;;;;;;;;1.50;89.60;;;;;;5074524;28;19945;-88
2022/12/19 06:14:15;;;;;;;;;;;1.50;89.60;;;;;;5074682;28;20363;-88
2022/12/19 06:16:40;;;;;;;;;;;1.60;89.80;;;;;;5074880;28;20390;-88
2022/12/19 06:19:06;;;;;;;;;;;1.70;89.90;;;;;;5073637;28;20341;-87
2022/12/19 06:21:31;;;;;;;;;;;1.90;89.30;;;;;;5074699;28;20022;-88
2022/12/19 06:23:57;;;;;;;;;;;1.90;89.10;;;;;;5074852;28;20043;-88
2022/12/19 06:26:23;;;;;;;;;;;2.00;89.00;;;;;;5074805;28;20299;-88
2022/12/19 06:28:50;;;;;;;;;;;2.00;88.90;;;;;;5074915;28;19940;-88
2022/12/19 06:31:16;;;;;;;;;;;1.90;88.90;;;;;;5072957;28;20412;-88
2022/12/19 06:33:42;;;;;;;;;;;1.90;88.90;;;;;;5070337;28;19951;-87
2022/12/19 06:36:15;;;;;;;;;;;1.80;89.20;;;;;;5072926;28;19950;-88
2022/12/19 06:38:41;;;;;;;;;;;1.70;89.40;;;;;;5073971;28;19953;-88
2022/12/19 06:43:52;;;;;;;;;;;1.80;90.10;;;;;;5069225;28;20056;-88
2022/12/19 06:46:17;;;;;;;;;;;1.80;89.80;;;;;;5083966;28;19999;-87
2022/12/19 06:48:43;;;;;;;;;;;1.70;89.50;;;;;;5075782;28;19973;-87
2022/12/19 06:51:08;;;;;;;;;;;1.70;89.60;;;;;;5069752;28;20418;-87
2022/12/19 06:53:34;;;;;;;;;;;1.70;89.90;;;;;;5070221;28;19958;-87
2022/12/19 06:55:59;;;;;;;;;;;1.80;89.90;;;;;;5074657;28;20045;-87
2022/12/19 06:58:25;;;;;;;;;;;2.00;89.70;;;;;;5051841;28;20325;-87
2022/12/19 07:00:51;;;;;;;;;;;2.10;89.70;;;;;;5070012;28;20406;-87
2022/12/19 07:03:20;;;;;;;;;;;2.20;88.90;;;;;;5068507;28;19963;-88
2022/12/19 07:05:46;;;;;;;;;;;2.20;88.60;;;;;;5063307;28;20026;-87
2022/12/19 07:08:11;;;;;;;;;;;2.20;89.10;;;;;;5070569;28;20143;-87
2022/12/19 07:10:37;;;;;;;;;;;2.20;89.10;;;;;;5069563;28;19946;-87
2022/12/19 07:13:03;;;;;;;;;;;2.40;88.90;;;;;;5070326;28;19946;-87
2022/12/19 07:15:30;;;;;;;;;;;2.50;88.10;;;;;;5070611;28;19955;-87
2022/12/19 07:17:57;;;;;;;;;;;2.50;87.90;;;;;;5071343;28;19953;-87
2022/12/19 07:20:23;;;;;;;;;;;2.40;87.90;;;;;;5071698;28;19988;-87
2022/12/19 07:22:48;;;;;;;;;;;2.50;88.00;;;;;;5070385;28;20475;-88
2022/12/19 07:25:16;;;;;;;;;;;2.50;88.10;;;;;;5068450;28;19945;-87
2022/12/19 07:27:42;;;;;;;;;;;2.70;88.10;;;;;;5067186;28;20315;-87
2022/12/19 07:30:08;;;;;;;;;;;3.00;87.30;;;;;;5069960;28;19941;-87
2022/12/19 07:32:33;;;;;;;;;;;3.10;86.30;;;;;;5050542;28;19967;-87
2022/12/19 07:34:59;;;;;;;;;;;3.10;85.90;;;;;;5067676;28;19948;-86
2022/12/19 07:37:24;;;;;;;;;;;3.00;85.90;;;;;;5049341;28;20012;-86
2022/12/19 07:39:51;;;;;;;;;;;3.00;86.00;;;;;;5068948;28;20461;-87
2022/12/19 07:42:17;;;;;;;;;;;2.90;86.00;;;;;;5073462;28;19983;-86
2022/12/19 07:44:43;;;;;;;;;;;2.80;86.10;;;;;;5072298;28;19940;-86
2022/12/19 07:47:08;;;;;;;;;;;2.80;86.10;;;;;;5052628;28;19941;-86
2022/12/19 07:49:34;;;;;;;;;;;2.80;86.10;;;;;;5054296;28;20412;-87
2022/12/19 07:52:00;;;;;;;;;;;2.70;86.70;;;;;;5072336;28;20249;-87
2022/12/19 07:54:25;;;;;;;;;;;2.60;87.00;;;;;;5068137;28;19944;-86
2022/12/19 07:56:51;;;;;;;;;;;2.50;87.40;;;;;;5070692;28;19949;-86
2022/12/19 07:59:16;;;;;;;;;;;2.50;87.80;;;;;;5064968;28;19941;-86
2022/12/19 08:01:42;;;;;;;;;;;2.40;88.00;;;;;;5051863;28;20421;-87
2022/12/19 08:04:07;;;;;;;;;;;2.40;88.70;;;;;;5051514;28;20031;-87
2022/12/19 08:06:33;;;;;;;;;;;2.50;88.70;;;;;;5064964;28;19950;-86
2022/12/19 08:08:58;;;;;;;;;;;2.50;88.70;;;;;;5069726;28;20396;-86
2022/12/19 08:11:28;;;;;;;;;;;2.50;88.90;;;;;;5068570;28;19944;-86
2022/12/19 08:13:54;;;;;;;;;;;2.60;89.30;;;;;;5070905;28;19943;-87
2022/12/19 08:16:20;;;;;;;;;;;2.70;88.80;;;;;;5071938;28;20439;-86
2022/12/19 08:18:46;;;;;;;;;;;2.70;88.80;;;;;;5072025;28;19944;-86
2022/12/19 08:21:12;;;;;;;;;;;2.80;88.60;;;;;;5056247;28;19980;-87
2022/12/19 08:23:38;;;;;;;;;;;2.90;88.60;;;;;;5070002;28;19991;-86
2022/12/19 08:26:05;;;;;;;;;;;3.00;88.50;;;;;;5070773;28;19975;-87
2022/12/19 08:28:31;;;;;;;;;;;3.00;88.00;;;;;;5070375;28;19975;-86
2022/12/19 08:30:56;;;;;;;;;;;3.10;88.40;;;;;;5067200;28;19945;-86
2022/12/19 08:33:22;;;;;;;;;;;3.20;88.50;;;;;;5066455;28;20448;-86
2022/12/19 08:35:48;;;;;;;;;;;3.20;87.60;;;;;;5066183;28;20028;-85
2022/12/19 08:38:13;;;;;;;;;;;3.30;87.00;;;;;;5066566;28;19943;-86
2022/12/19 08:40:39;;;;;;;;;;;3.30;86.10;;;;;;5066583;28;19942;-85
2022/12/19 08:43:04;;;;;;;;;;;3.50;86.10;;;;;;5069480;28;20000;-85
2022/12/19 08:45:30;;;;;;;;;;;3.80;85.30;;;;;;5071441;28;20015;-85
2022/12/19 08:47:55;;;;;;;;;;;4.00;84.10;;;;;;5073293;28;20000;-85
2022/12/19 08:50:21;;;;;;;;;;;4.10;83.50;;;;;;5070797;28;20383;-85
2022/12/19 08:52:46;;;;;;;;;;;4.10;82.60;;;;;;5073468;28;19997;-85
2022/12/19 08:55:12;;;;;;;;;;;3.70;83.50;;;;;;5070674;28;19945;-85
2022/12/19 08:57:37;;;;;;;;;;;3.60;83.90;;;;;;5074284;28;19941;-86
2022/12/19 09:00:04;;;;;;;;;;;3.70;83.90;;;;;;5069054;28;20037;-86
2022/12/19 09:02:30;;;;;;;;;;;3.60;84.40;;;;;;5060568;28;19965;-86
2022/12/19 09:04:55;;;;;;;;;;;3.70;85.10;;;;;;5068113;28;19959;-86
2022/12/19 09:07:21;;;;;;;;;;;3.70;85.20;;;;;;5072132;28;19941;-86
2022/12/19 09:09:46;;;;;;;;;;;3.80;85.30;;;;;;5070170;28;20399;-86
2022/12/19 09:12:13;;;;;;;;;;;3.80;85.10;;;;;;5069356;28;19991;-86
2022/12/19 09:14:39;;;;;;;;;;;3.90;85.00;;;;;;5073417;28;20395;-86
2022/12/19 09:17:04;;;;;;;;;;;4.00;85.00;;;;;;5070060;28;19953;-86
2022/12/19 09:19:30;;;;;;;;;;;4.20;85.00;;;;;;5067461;28;20046;-87
2022/12/19 09:21:55;;;;;;;;;;;4.40;84.60;;;;;;5069367;28;20013;-86
2022/12/19 09:24:21;;;;;;;;;;;4.70;83.20;;;;;;5072317;28;20362;-86
2022/12/19 09:26:46;;;;;;;;;;;4.90;81.80;;;;;;5070246;28;20344;-86
2022/12/19 09:29:12;;;;;;;;;;;5.00;81.10;;;;;;5070646;28;19949;-85
2022/12/19 09:31:38;;;;;;;;;;;4.90;81.00;;;;;;5072210;28;19953;-86
2022/12/19 09:34:03;;;;;;;;;;;4.80;81.00;;;;;;5073604;28;19950;-88
2022/12/19 09:36:29;;;;;;;;;;;5.00;81.40;;;;;;5073077;28;20024;-88
2022/12/19 09:38:56;;;;;;;;;;;5.30;80.40;;;;;;5072855;28;20023;-87
2022/12/19 09:41:30;;;;;;;;;;;5.20;79.10;;;;;;5056439;28;20344;-87
2022/12/19 09:44:09;;;;;;;;;;;5.00;79.40;;;;;;5073643;28;19974;-85
2022/12/19 09:46:41;;;;;;;;;;;4.90;80.10;;;;;;5073048;28;19943;-88
2022/12/19 09:49:15;;;;;;;;;;;4.90;79.60;;;;;;5074136;28;20003;-85
2022/12/19 09:52:04;;;;;;;;;;;4.90;79.50;;;;;;5074305;28;19984;-88
2022/12/19 09:54:37;;;;;;;;;;;4.90;79.60;;;;;;5066729;28;19963;-88
2022/12/19 09:57:05;;;;;;;;;;;4.90;79.10;;;;;;5070784;28;20453;-88
2022/12/19 09:59:33;;;;;;;;;;;5.00;78.90;;;;;;5068433;28;20525;-88
2022/12/19 10:02:01;;;;;;;;;;;5.00;78.40;;;;;;5068933;28;19964;-88
2022/12/19 10:04:29;;;;;;;;;;;5.00;78.40;;;;;;5064985;28;19964;-88
2022/12/19 10:06:54;;;;;;;;;;;5.10;78.90;;;;;;5067424;28;20593;-88
2022/12/19 10:09:29;;;;;;;;;;;5.10;79.00;;;;;;5071298;28;19957;-88
2022/12/19 10:12:00;;;;;;;;;;;5.20;79.00;;;;;;5065886;28;20518;-88
2022/12/19 10:14:44;;;;;;;;;;;5.30;78.90;;;;;;5063896;28;20425;-88
2022/12/19 10:17:28;;;;;;;;;;;5.30;79.60;;;;;;5068688;28;20398;-88
2022/12/19 10:19:57;;;;;;;;;;;5.70;78.80;;;;;;5067792;28;19948;-88
2022/12/19 10:22:28;;;;;;;;;;;5.70;77.80;;;;;;5087915;22;20449;-88
2022/12/19 10:25:00;;;;;;;;;;;5.80;76.70;;;;;;5087427;28;19979;-88
2022/12/19 10:27:28;;;;;;;;;;;5.80;76.80;;;;;;5089904;28;19999;-87
2022/12/19 10:30:11;;;;;;;;;;;5.70;77.00;;;;;;5090118;28;19981;-88
2022/12/19 10:32:47;;;;;;;;;;;5.60;77.00;;;;;;5090586;28;20098;-88
2022/12/19 10:35:13;;;;;;;;;;;5.50;77.80;;;;;;5089739;28;19967;-87
2022/12/19 10:37:57;;;;;;;;;;;5.50;77.00;;;;;;5092697;28;19940;-88
2022/12/19 10:40:27;;;;;;;;;;;5.50;77.00;;;;;;5089924;28;20039;-88
2022/12/19 10:43:01;;;;;;;;;;;5.40;77.80;;;;;;5093194;28;20022;-88
2022/12/19 10:45:31;;;;;;;;;;;5.40;77.20;;;;;;5091780;28;19954;-87
2022/12/19 10:47:57;;;;;;;;;;;5.50;76.40;;;;;;5090717;28;19945;-87
2022/12/19 10:50:24;;;;;;;;;;;5.60;76.40;;;;;;5092698;28;19948;-86
2022/12/19 10:52:52;;;;;;;;;;;5.60;75.30;;;;;;5089334;28;19941;-87
2022/12/19 10:55:21;;;;;;;;;;;5.70;74.50;;;;;;5092060;28;19949;-86
2022/12/19 10:57:46;;;;;;;;;;;5.80;73.70;;;;;;5092468;28;19940;-85
2022/12/19 11:00:12;;;;;;;;;;;5.70;74.50;;;;;;5090564;28;20026;-85
2022/12/19 11:02:37;;;;;;;;;;;5.50;74.90;;;;;;5092956;28;20437;-85
2022/12/19 11:05:05;;;;;;;;;;;5.50;74.30;;;;;;5086005;28;19989;-86
2022/12/19 11:07:30;;;;;;;;;;;5.40;74.40;;;;;;5092644;28;20473;-87
2022/12/19 11:09:56;;;;;;;;;;;5.50;74.60;;;;;;5090018;28;20045;-86
2022/12/19 11:12:24;;;;;;;;;;;5.50;72.60;;;;;;5093528;28;20162;-86
2022/12/19 11:15:14;;;;;;;;;;;5.40;72.30;;;;;;5091388;28;20032;-86
2022/12/19 11:17:41;;;;;;;;;;;5.50;72.90;;;;;;5090758;28;19936;-86
2022/12/19 11:20:20;;;;;;;;;;;5.50;72.50;;;;;;5091713;28;19990;-86
2022/12/19 11:22:50;;;;;;;;;;;5.60;73.50;;;;;;5093807;28;19998;-86
2022/12/19 11:25:18;;;;;;;;;;;5.90;72.40;;;;;;5093663;28;19950;-86
2022/12/19 11:27:45;;;;;;;;;;;6.00;71.80;;;;;;5075890;28;20410;-86
2022/12/19 11:30:13;;;;;;;;;;;6.10;71.40;;;;;;5093921;28;19948;-85
2022/12/19 11:32:40;;;;;;;;;;;6.10;71.40;;;;;;5094091;28;19975;-85
2022/12/19 11:35:25;;;;;;;;;;;6.10;71.90;;;;;;5075266;28;20293;-86
2022/12/19 11:38:03;;;;;;;;;;;6.00;71.20;;;;;;5093582;28;19947;-86
2022/12/19 11:40:31;;;;;;;;;;;5.90;72.10;;;;;;5093762;28;19951;-86
2022/12/19 11:43:05;;;;;;;;;;;5.90;72.00;;;;;;5093737;28;19942;-86
2022/12/19 11:45:39;;;;;;;;;;;5.90;72.30;;;;;;5093254;28;20002;-86
2022/12/19 11:48:11;;;;;;;;;;;5.90;72.10;;;;;;5093649;28;19994;-86
2022/12/19 11:50:51;;;;;;;;;;;5.90;72.50;;;;;;5093321;28;20394;-86
2022/12/19 11:53:19;;;;;;;;;;;5.90;73.10;;;;;;5093528;28;20384;-86
2022/12/19 11:55:59;;;;;;;;;;;5.90;71.40;;;;;;5093584;28;19996;-85
2022/12/19 11:58:27;;;;;;;;;;;5.90;71.60;;;;;;5075337;28;20366;-85
2022/12/19 12:00:57;;;;;;;;;;;6.00;71.20;;;;;;5093571;28;20313;-85
2022/12/19 12:03:35;;;;;;;;;;;6.00;70.50;;;;;;5093123;28;19959;-85
2022/12/19 12:06:08;;;;;;;;;;;6.20;70.00;;;;;;5093167;28;20324;-86
2022/12/19 12:08:48;;;;;;;;;;;6.30;69.50;;;;;;5093379;28;19952;-86
2022/12/19 12:11:32;;;;;;;;;;;6.20;69.80;;;;;;5093317;28;19940;-86
2022/12/19 12:14:14;;;;;;;;;;;6.10;70.50;;;;;;5093375;28;19989;-86
2022/12/19 12:16:46;;;;;;;;;;;6.20;70.00;;;;;;5092778;28;19949;-87
2022/12/19 12:19:12;;;;;;;;;;;6.20;70.90;;;;;;5092861;28;19944;-86
2022/12/19 12:21:56;;;;;;;;;;;6.30;70.80;;;;;;5092558;28;19982;-88
2022/12/19 12:24:36;;;;;;;;;;;6.40;70.10;;;;;;5092722;28;20310;-87
2022/12/19 12:27:16;;;;;;;;;;;6.40;70.50;;;;;;5092964;28;19945;-87
2022/12/19 12:29:48;;;;;;;;;;;6.50;69.60;;;;;;5092073;28;19938;-87
2022/12/19 12:32:25;;;;;;;;;;;6.60;70.10;;;;;;5086127;28;19953;-87
2022/12/19 12:35:03;;;;;;;;;;;6.90;69.70;;;;;;5087207;28;19996;-87
2022/12/19 12:37:28;;;;;;;;;;;7.20;68.20;;;;;;5092356;28;20019;-86
2022/12/19 12:40:12;;;;;;;;;;;7.40;67.50;;;;;;5091549;28;20041;-86
2022/12/19 12:42:47;;;;;;;;;;;7.50;66.80;;;;;;5090933;28;20061;-86
2022/12/19 12:45:18;;;;;;;;;;;7.30;66.60;;;;;;5088239;28;19989;-86
2022/12/19 12:47:46;;;;;;;;;;;7.30;65.90;;;;;;5093061;28;19942;-86
2022/12/19 12:50:16;;;;;;;;;;;7.30;66.20;;;;;;5092181;28;19998;-86
2022/12/19 12:52:46;;;;;;;;;;;7.20;65.90;;;;;;5089530;28;20476;-86
2022/12/19 12:55:19;;;;;;;;;;;7.10;66.40;;;;;;5091884;28;19944;-86
2022/12/19 12:57:44;;;;;;;;;;;7.30;66.70;;;;;;5091266;28;19955;-86
2022/12/19 13:00:13;;;;;;;;;;;7.70;65.10;;;;;;5088140;28;20418;-86
2022/12/19 13:02:38;;;;;;;;;;;7.80;64.30;;;;;;5084250;28;19977;-86
2022/12/19 13:05:18;;;;;;;;;;;8.00;63.70;;;;;;5091995;28;19942;-86
2022/12/19 13:07:53;;;;;;;;;;;8.10;63.20;;;;;;5087469;28;20032;-85
2022/12/19 13:10:27;;;;;;;;;;;8.20;62.40;;;;;;5085442;28;19986;-85
2022/12/19 13:13:01;;;;;;;;;;;7.70;63.60;;;;;;5084771;28;20039;-85
2022/12/19 13:15:26;;;;;;;;;;;7.30;64.50;;;;;;5083465;28;19941;-85
2022/12/19 13:17:52;;;;;;;;;;;7.00;66.10;;;;;;5090425;28;20011;-85
2022/12/19 13:20:18;;;;;;;;;;;7.00;66.40;;;;;;5086663;28;19948;-85
2022/12/19 13:22:44;;;;;;;;;;;6.90;66.20;;;;;;5088353;28;20009;-85
2022/12/19 13:25:25;;;;;;;;;;;6.90;66.30;;;;;;5085825;28;19987;-85
2022/12/19 13:27:59;;;;;;;;;;;7.00;66.50;;;;;;5088904;28;20016;-85
2022/12/19 13:30:29;;;;;;;;;;;7.30;66.30;;;;;;5068964;28;19945;-85
2022/12/19 13:32:55;;;;;;;;;;;7.30;66.10;;;;;;5091665;28;19945;-85
2022/12/19 13:35:20;;;;;;;;;;;7.30;64.90;;;;;;5087399;28;19995;-85
2022/12/19 13:37:49;;;;;;;;;;;7.20;64.80;;;;;;5095445;28;19982;-85
2022/12/19 13:40:24;;;;;;;;;;;7.20;65.60;;;;;;5095228;28;19958;-85
2022/12/19 13:45:38;;;;;;;;;;;7.40;64.20;;;;;;5092411;28;20432;-85
2022/12/19 13:48:04;;;;;;;;;;;7.40;62.90;;;;;;5095088;28;19985;-85
2022/12/19 13:50:30;;;;;;;;;;;7.40;63.20;;;;;;5094965;28;19984;-85
2022/12/19 13:52:55;;;;;;;;;;;7.70;64.90;;;;;;5095204;28;20008;-85
2022/12/19 13:55:22;;;;;;;;;;;7.60;63.00;;;;;;5088833;28;19949;-85
2022/12/19 13:57:50;;;;;;;;;;;7.60;63.30;;;;;;5089255;28;20816;-88
2022/12/19 14:00:17;;;;;;;;;;;7.70;63.20;;;;;;5090300;28;19949;-88
2022/12/19 14:02:51;;;;;;;;;;;7.90;61.70;;;;;;5092509;28;20332;-88
2022/12/19 14:05:29;;;;;;;;;;;7.80;61.50;;;;;;5089019;28;19944;-88
2022/12/19 14:07:55;;;;;;;;;;;8.10;61.30;;;;;;5092968;28;19994;-87
2022/12/19 14:10:23;;;;;;;;;;;8.20;61.10;;;;;;5094849;28;19946;-87
2022/12/19 14:15:37;;;;;;;;;;;8.40;61.50;;;;;;5086388;28;20008;-88
2022/12/19 14:18:14;;;;;;;;;;;8.50;60.10;;;;;;5090896;28;19954;-86
2022/12/19 14:20:40;;;;;;;;;;;8.80;59.70;;;;;;5087501;28;19952;-87
2022/12/19 14:23:06;;;;;;;;;;;8.50;60.30;;;;;;5090973;28;19976;-86
2022/12/19 14:25:37;;;;;;;;;;;8.20;61.80;;;;;;5086204;28;19995;-87
2022/12/19 14:28:05;;;;;;;;;;;8.00;62.60;;;;;;5089948;28;20404;-88
2022/12/19 14:30:33;;;;;;;;;;;7.90;62.90;;;;;;5086716;28;19962;-87
2022/12/19 14:33:03;;;;;;;;;;;7.80;63.50;;;;;;5080714;28;19997;-88
2022/12/19 14:35:32;;;;;;;;;;;7.70;63.00;;;;;;5093499;28;19941;-88
2022/12/19 14:37:59;;;;;;;;;;;7.40;64.30;;;;;;5092931;28;19945;-88
2022/12/19 14:40:25;;;;;;;;;;;7.30;65.00;;;;;;5093392;28;19951;-88
2022/12/19 14:45:42;;;;;;;;;;;7.00;67.10;;;;;;5088758;28;19954;-86
2022/12/19 14:48:26;;;;;;;;;;;6.90;67.30;;;;;;5089984;28;19949;-88
2022/12/19 14:51:12;;;;;;;;;;;6.90;66.90;;;;;;5091865;28;19997;-88
2022/12/19 14:53:38;;;;;;;;;;;6.70;66.50;;;;;;5089568;28;19957;-88